Alyeska Resort
Hourly Weather - Base Weather Site
ALY_BASE_HR 9/2/2014
CLICK TO VIEW GRAPH!!

        DATE  TIME   Air  BATT   H2o   H2o   Rel
                    Temp  Volt  Inch Since  Hum%
                      F   AVG   1HR  0600   AVG

    9/2/2014 17:00    57 13.58  0.00  0.00    75
    9/2/2014 16:00    57 13.59  0.00  0.00    80
    9/2/2014 15:00    56 13.59  0.00  0.00    77
    9/2/2014 14:00    56 13.59  0.00  0.00    74
    9/2/2014 13:00    57 13.61  0.00  0.00    72
    9/2/2014 12:00    55 13.64  0.00  0.00    77
    9/2/2014 11:00    55 13.70  0.00  0.00    75
    9/2/2014 10:00    51 13.76  0.00  0.00    86
    9/2/2014 09:00    47 13.79  0.00  0.00    90
    9/2/2014 08:00    46 13.80  0.00  0.00    90
    9/2/2014 07:00    46 13.79  0.00  0.00    88
    9/2/2014 06:00    47 13.78  0.00  0.00    87
    9/2/2014 05:00    47 13.76  0.00  0.00    90
    9/2/2014 04:00    48 13.76  0.00  0.00    86
    9/2/2014 03:00    48 13.75  0.00  0.00    86
    9/2/2014 02:00    49 13.72  0.00  0.00    87
    9/2/2014 01:00    50 13.70  0.00  0.00    85
    9/1/2014 24:00    50 13.68  0.00  0.00    84
    9/1/2014 23:00    51 13.64  0.00  0.00    82
    9/1/2014 22:00    53 13.61  0.00  0.00    77
    9/1/2014 21:00    54 13.57  0.00  0.00    73
    9/1/2014 20:00    58 13.53  0.00  0.00    57
    9/1/2014 19:00    60 13.51  0.00  0.00    47
    9/1/2014 18:00    60 13.53  0.00  0.00    46


CLICK TO VIEW GRAPH!!